createdAt,value
2018-05-08T00:00:42.364Z,20.45
2018-05-08T00:01:41.946Z,20.45
2018-05-08T00:02:41.967Z,20.46
2018-05-08T00:03:41.839Z,20.45
2018-05-08T00:04:41.945Z,20.45
2018-05-08T00:05:41.941Z,20.44
2018-05-08T00:06:42.098Z,20.44
2018-05-08T00:07:42.066Z,20.45
2018-05-08T00:08:41.877Z,20.43
2018-05-08T00:09:42.043Z,20.45
2018-05-08T00:10:42.109Z,20.44
2018-05-08T00:11:42.149Z,20.45
2018-05-08T00:12:42.137Z,20.45
2018-05-08T00:13:42.048Z,20.45
2018-05-08T00:14:41.814Z,20.44
2018-05-08T00:15:41.922Z,20.45
2018-05-08T00:16:42.137Z,20.44
2018-05-08T00:17:42.069Z,20.44
2018-05-08T00:18:41.963Z,20.44
2018-05-08T00:19:42.042Z,20.44
2018-05-08T00:20:42.121Z,20.44
2018-05-08T00:21:42.314Z,20.44
2018-05-08T00:22:41.947Z,20.44
2018-05-08T00:23:41.951Z,20.43
2018-05-08T00:24:42.129Z,20.43
2018-05-08T00:25:41.857Z,20.44
2018-05-08T00:26:41.991Z,20.44
2018-05-08T00:27:42.138Z,20.44
2018-05-08T00:28:42.210Z,20.43
2018-05-08T00:29:42.192Z,20.43
2018-05-08T00:30:41.977Z,20.43
2018-05-08T00:31:42.108Z,20.43
2018-05-08T00:32:42.020Z,20.43
2018-05-08T00:33:41.953Z,20.44
2018-05-08T00:34:42.128Z,20.43
2018-05-08T00:35:41.991Z,20.43
2018-05-08T00:36:41.898Z,20.42
2018-05-08T00:37:42.074Z,20.42
2018-05-08T00:38:41.887Z,20.42
2018-05-08T00:39:41.968Z,20.43
2018-05-08T00:40:41.930Z,20.43
2018-05-08T00:41:42.084Z,20.42
2018-05-08T00:42:42.027Z,20.43
2018-05-08T00:43:42.138Z,20.42
2018-05-08T00:44:42.004Z,20.42
2018-05-08T00:45:41.967Z,20.43
2018-05-08T00:46:42.193Z,20.43
2018-05-08T00:47:41.904Z,20.43
2018-05-08T00:48:42.057Z,20.43
2018-05-08T00:49:42.133Z,20.43
2018-05-08T00:50:41.963Z,20.44
2018-05-08T00:51:41.892Z,20.43
2018-05-08T00:52:41.907Z,20.42
2018-05-08T00:53:42.074Z,20.43
2018-05-08T00:54:41.969Z,20.43
2018-05-08T00:55:42.038Z,20.42
2018-05-08T00:56:41.901Z,20.43
2018-05-08T00:57:42.083Z,20.43
2018-05-08T00:58:41.877Z,20.42
2018-05-08T00:59:42.225Z,20.43
2018-05-08T01:00:42.031Z,20.43
2018-05-08T01:01:41.977Z,20.43
2018-05-08T01:02:42.151Z,20.42
2018-05-08T01:03:41.879Z,20.43
2018-05-08T01:04:42.070Z,20.42
2018-05-08T01:05:42.061Z,20.42
2018-05-08T01:06:41.889Z,20.42
2018-05-08T01:07:42.022Z,20.42
2018-05-08T01:08:41.945Z,20.41
2018-05-08T01:09:41.896Z,20.43
2018-05-08T01:10:41.943Z,20.42
2018-05-08T01:11:42.254Z,20.41
2018-05-08T01:12:42.079Z,20.42
2018-05-08T01:13:42.108Z,20.42
2018-05-08T01:14:41.944Z,20.42
2018-05-08T01:15:42.035Z,20.42
2018-05-08T01:16:42.071Z,20.42
2018-05-08T01:17:41.975Z,20.42
2018-05-08T01:18:41.971Z,20.42
2018-05-08T01:19:42.072Z,20.42
2018-05-08T01:21:13.985Z,20.43
2018-05-08T01:21:41.872Z,20.42
2018-05-08T01:22:42.057Z,20.41
2018-05-08T01:23:41.913Z,20.42
2018-05-08T01:24:42.115Z,20.42
2018-05-08T01:25:41.864Z,20.41
2018-05-08T01:26:42.036Z,20.42
2018-05-08T01:27:41.984Z,20.41
2018-05-08T01:28:42.156Z,20.41
2018-05-08T01:29:42.200Z,20.41
2018-05-08T01:30:41.985Z,20.41
2018-05-08T01:31:42.664Z,20.41
2018-05-08T01:32:42.025Z,20.41
2018-05-08T01:33:41.793Z,20.41
2018-05-08T01:34:41.902Z,20.41
2018-05-08T01:35:41.979Z,20.41
2018-05-08T01:36:41.888Z,20.41
2018-05-08T01:37:42.275Z,20.41
2018-05-08T01:38:41.958Z,20.41
2018-05-08T01:39:42.079Z,20.41
2018-05-08T01:40:42.133Z,20.41
2018-05-08T01:41:41.836Z,20.41
2018-05-08T01:42:41.990Z,20.41
2018-05-08T01:43:41.948Z,20.41
2018-05-08T01:44:42.077Z,20.41
2018-05-08T01:45:41.924Z,20.41
2018-05-08T01:46:42.018Z,20.41
2018-05-08T01:47:42.054Z,20.41
2018-05-08T01:48:41.876Z,20.41
2018-05-08T01:49:41.986Z,20.41
2018-05-08T01:50:41.920Z,20.41
2018-05-08T01:51:42.046Z,20.41
2018-05-08T01:52:41.908Z,20.41
2018-05-08T01:53:42.067Z,20.41
2018-05-08T01:54:42.081Z,20.41
2018-05-08T01:55:41.833Z,20.41
2018-05-08T01:56:41.943Z,20.41
2018-05-08T01:57:41.974Z,20.41
2018-05-08T01:58:41.887Z,20.41
2018-05-08T01:59:42.027Z,20.41
2018-05-08T02:00:42.003Z,20.41
2018-05-08T02:01:42.065Z,20.41
2018-05-08T02:02:41.946Z,20.41
2018-05-08T02:03:42.031Z,20.41
2018-05-08T02:04:42.037Z,20.4
2018-05-08T02:05:41.939Z,20.4
2018-05-08T02:06:42.446Z,20.4
2018-05-08T02:07:42.045Z,20.4
2018-05-08T02:08:41.988Z,20.4
2018-05-08T02:09:42.009Z,20.4
2018-05-08T02:10:41.836Z,20.4
2018-05-08T02:11:41.978Z,20.41
2018-05-08T02:12:42.092Z,20.41
2018-05-08T02:13:41.892Z,20.4
2018-05-08T02:14:41.967Z,20.4
2018-05-08T02:15:42.108Z,20.4
2018-05-08T02:16:41.836Z,20.4
2018-05-08T02:17:41.871Z,20.4
2018-05-08T02:18:42.165Z,20.4
2018-05-08T02:19:42.219Z,20.4
2018-05-08T02:20:42.006Z,20.39
2018-05-08T02:21:41.867Z,20.4
2018-05-08T02:22:41.984Z,20.4
2018-05-08T02:23:42.085Z,20.4
2018-05-08T02:24:42.119Z,20.41
2018-05-08T02:25:41.947Z,20.4
2018-05-08T02:26:42.009Z,20.4
2018-05-08T02:27:41.882Z,20.4
2018-05-08T02:28:41.984Z,20.4
2018-05-08T02:29:41.929Z,20.39
2018-05-08T02:30:42.077Z,20.4
2018-05-08T02:31:41.885Z,20.39
2018-05-08T02:32:41.843Z,20.39
2018-05-08T02:33:42.010Z,20.39
2018-05-08T02:34:42.003Z,20.4
2018-05-08T02:35:41.889Z,20.4
2018-05-08T02:36:41.987Z,20.4
2018-05-08T02:37:42.067Z,20.4
2018-05-08T02:38:42.094Z,20.4
2018-05-08T02:39:42.066Z,20.41
2018-05-08T02:40:42.081Z,20.4
2018-05-08T02:41:41.910Z,20.4
2018-05-08T02:42:41.967Z,20.4
2018-05-08T02:43:41.924Z,20.39
2018-05-08T02:44:41.963Z,20.39
2018-05-08T02:45:41.907Z,20.39
2018-05-08T02:46:42.005Z,20.39
2018-05-08T02:47:42.138Z,20.4
2018-05-08T02:48:41.968Z,20.4
2018-05-08T02:49:41.987Z,20.39
2018-05-08T02:50:41.899Z,20.39
2018-05-08T02:51:41.946Z,20.4
2018-05-08T02:52:42.010Z,20.39
2018-05-08T02:53:41.985Z,20.39
2018-05-08T02:54:41.817Z,20.4
2018-05-08T02:55:42.096Z,20.39
2018-05-08T02:56:41.793Z,20.38
2018-05-08T02:57:41.972Z,20.39
2018-05-08T02:58:42.020Z,20.38
2018-05-08T02:59:41.930Z,20.38
2018-05-08T03:00:41.862Z,20.38
2018-05-08T03:01:42.029Z,20.39
2018-05-08T03:02:42.026Z,20.38
2018-05-08T03:03:42.045Z,20.39
2018-05-08T03:04:42.110Z,20.39
2018-05-08T03:05:41.914Z,20.39
2018-05-08T03:06:42.132Z,20.39
2018-05-08T03:07:42.068Z,20.39
2018-05-08T03:08:42.119Z,20.39
2018-05-08T03:09:42.019Z,20.39
2018-05-08T03:10:42.029Z,20.39
2018-05-08T03:11:42.051Z,20.39
2018-05-08T03:12:41.967Z,20.39
2018-05-08T03:13:41.973Z,20.38
2018-05-08T03:14:41.979Z,20.39
2018-05-08T03:15:42.086Z,20.39
2018-05-08T03:16:41.761Z,20.38
2018-05-08T03:17:41.977Z,20.38
2018-05-08T03:18:41.917Z,20.39
2018-05-08T03:19:41.976Z,20.38
2018-05-08T03:20:41.888Z,20.38
2018-05-08T03:21:42.201Z,20.38
2018-05-08T03:22:41.858Z,20.38
2018-05-08T03:23:42.017Z,20.39
2018-05-08T03:24:41.931Z,20.38
2018-05-08T03:25:42.060Z,20.38
2018-05-08T03:26:41.797Z,20.38
2018-05-08T03:27:41.861Z,20.38
2018-05-08T03:28:41.891Z,20.38
2018-05-08T03:29:41.931Z,20.38
2018-05-08T03:30:41.955Z,20.38
2018-05-08T03:31:42.036Z,20.38
2018-05-08T03:32:42.221Z,20.37
2018-05-08T03:33:42.074Z,20.38
2018-05-08T03:34:41.894Z,20.38
2018-05-08T03:35:41.894Z,20.37
2018-05-08T03:36:41.915Z,20.37
2018-05-08T03:37:42.072Z,20.38
2018-05-08T03:38:41.804Z,20.38
2018-05-08T03:39:41.951Z,20.38
2018-05-08T03:40:42.016Z,20.38
2018-05-08T03:41:41.782Z,20.37
2018-05-08T03:42:42.037Z,20.38
2018-05-08T03:43:42.044Z,20.38
2018-05-08T03:44:41.919Z,20.38
2018-05-08T03:45:41.923Z,20.38
2018-05-08T03:46:41.911Z,20.38
2018-05-08T03:47:41.817Z,20.39
2018-05-08T03:48:41.823Z,20.38
2018-05-08T03:49:41.920Z,20.38
2018-05-08T03:50:41.822Z,20.38
2018-05-08T03:51:41.818Z,20.38
2018-05-08T03:52:42.158Z,20.38
2018-05-08T03:53:42.020Z,20.38
2018-05-08T03:54:42.034Z,20.38
2018-05-08T03:55:42.020Z,20.37
2018-05-08T03:56:41.817Z,20.36
2018-05-08T03:57:41.891Z,20.37
2018-05-08T03:58:41.934Z,20.37
2018-05-08T03:59:41.946Z,20.37
2018-05-08T04:00:41.901Z,20.37
2018-05-08T04:01:42.183Z,20.37
2018-05-08T04:02:41.992Z,20.37
2018-05-08T04:03:41.877Z,20.37
2018-05-08T04:04:41.864Z,20.37
2018-05-08T04:05:41.988Z,20.37
2018-05-08T04:06:41.884Z,20.37
2018-05-08T04:07:42.100Z,20.38
2018-05-08T04:08:42.004Z,20.38
2018-05-08T04:09:41.923Z,20.38
2018-05-08T04:10:42.084Z,20.37
2018-05-08T04:11:41.807Z,20.38
2018-05-08T04:12:41.856Z,20.38
2018-05-08T04:13:41.970Z,20.38
2018-05-08T04:14:41.914Z,20.37
2018-05-08T04:15:41.994Z,20.38
2018-05-08T04:16:41.883Z,20.38
2018-05-08T04:17:42.076Z,20.38
2018-05-08T04:18:41.924Z,20.38
2018-05-08T04:19:41.923Z,20.38
2018-05-08T04:20:42.072Z,20.37
2018-05-08T04:21:42.062Z,20.38
2018-05-08T04:22:41.957Z,20.38
2018-05-08T04:23:42.122Z,20.37
2018-05-08T04:24:42.026Z,20.38
2018-05-08T04:25:41.913Z,20.38
2018-05-08T04:26:41.921Z,20.37
2018-05-08T04:27:41.933Z,20.37
2018-05-08T04:28:41.952Z,20.37
2018-05-08T04:29:41.941Z,20.38
2018-05-08T04:30:42.054Z,20.38
2018-05-08T04:31:41.899Z,20.38
2018-05-08T04:32:41.934Z,20.38
2018-05-08T04:33:41.853Z,20.37
2018-05-08T04:34:41.997Z,20.38
2018-05-08T04:35:42.127Z,20.37
2018-05-08T04:36:42.758Z,20.38
2018-05-08T04:37:42.014Z,20.37
2018-05-08T04:38:41.942Z,20.38
2018-05-08T04:39:41.860Z,20.38
2018-05-08T04:40:41.914Z,20.38
2018-05-08T04:41:41.881Z,20.38
2018-05-08T04:42:41.933Z,20.38
2018-05-08T04:43:42.046Z,20.38
2018-05-08T04:44:41.833Z,20.39
2018-05-08T04:45:42.033Z,20.37
2018-05-08T04:46:41.991Z,20.37
2018-05-08T04:47:41.926Z,20.38
2018-05-08T04:48:42.043Z,20.3
2018-05-08T04:49:41.881Z,20.26
2018-05-08T04:50:41.951Z,20.26
2018-05-08T04:51:41.882Z,20.26
2018-05-08T04:52:41.936Z,20.24
2018-05-08T04:53:41.876Z,20.24
2018-05-08T04:54:41.911Z,20.24
2018-05-08T04:55:42.192Z,20.2
2018-05-08T04:56:41.851Z,20.19
2018-05-08T04:57:42.067Z,20.18
2018-05-08T04:58:41.927Z,20.15
2018-05-08T04:59:41.994Z,20.18
2018-05-08T05:00:41.918Z,20.17
2018-05-08T05:01:42.053Z,20.16
2018-05-08T05:02:42.100Z,20.17
2018-05-08T05:03:42.080Z,20.11
2018-05-08T05:04:41.857Z,20.1
2018-05-08T05:05:41.850Z,20.12
2018-05-08T05:06:42.037Z,20.09
2018-05-08T05:07:41.863Z,20.09
2018-05-08T05:08:41.942Z,20.1
2018-05-08T05:09:42.159Z,20.11
2018-05-08T05:10:42.047Z,20.1
2018-05-08T05:11:42.032Z,20.12
2018-05-08T05:12:42.083Z,20.12
2018-05-08T05:13:41.857Z,20.12
2018-05-08T05:14:42.019Z,20.06
2018-05-08T05:15:41.916Z,20.13
2018-05-08T05:16:42.303Z,20.14
2018-05-08T05:17:42.021Z,20.17
2018-05-08T05:18:41.951Z,20.18
2018-05-08T05:19:41.869Z,20.18
2018-05-08T05:20:41.921Z,20.18
2018-05-08T05:21:41.996Z,20.19
2018-05-08T05:22:41.937Z,20.2
2018-05-08T05:23:41.918Z,20.2
2018-05-08T05:24:41.835Z,20.22
2018-05-08T05:25:42.044Z,20.22
2018-05-08T05:26:41.816Z,20.23
2018-05-08T05:27:41.902Z,20.23
2018-05-08T05:28:42.061Z,20.24
2018-05-08T05:29:42.032Z,20.24
2018-05-08T05:30:42.027Z,20.24
2018-05-08T05:31:42.423Z,20.24
2018-05-08T05:32:41.981Z,20.24
2018-05-08T05:33:41.964Z,20.25
2018-05-08T05:34:41.890Z,20.25
2018-05-08T05:35:41.830Z,20.26
2018-05-08T05:36:42.122Z,20.26
2018-05-08T05:37:41.912Z,20.26
2018-05-08T05:38:41.877Z,20.26
2018-05-08T05:39:42.014Z,20.27
2018-05-08T05:40:41.845Z,20.27
2018-05-08T05:41:41.870Z,20.27
2018-05-08T05:42:42.501Z,20.28
2018-05-08T05:43:41.812Z,20.27
2018-05-08T05:44:41.980Z,20.27
2018-05-08T05:45:41.960Z,20.28
2018-05-08T05:46:41.807Z,20.28
2018-05-08T05:47:41.809Z,20.28
2018-05-08T05:48:41.812Z,20.29
2018-05-08T05:49:41.988Z,20.28
2018-05-08T05:50:41.790Z,20.28
2018-05-08T05:51:42.053Z,20.29
2018-05-08T05:52:42.029Z,20.29
2018-05-08T05:53:41.891Z,20.3
2018-05-08T05:54:41.925Z,20.3
2018-05-08T05:55:42.000Z,20.3
2018-05-08T05:56:41.854Z,20.3
2018-05-08T05:57:41.797Z,20.3
2018-05-08T05:58:42.029Z,20.3
2018-05-08T05:59:41.923Z,20.3
2018-05-08T06:00:41.772Z,20.3
2018-05-08T06:01:41.938Z,20.3
2018-05-08T06:02:41.888Z,20.3
2018-05-08T06:03:41.985Z,20.3
2018-05-08T06:04:41.918Z,20.3
2018-05-08T06:05:42.065Z,20.31
2018-05-08T06:06:41.911Z,20.31
2018-05-08T06:07:41.875Z,20.31
2018-05-08T06:08:41.785Z,20.3
2018-05-08T06:09:42.041Z,20.31
2018-05-08T06:10:42.051Z,20.31
2018-05-08T06:11:41.915Z,20.31
2018-05-08T06:12:41.908Z,20.32
2018-05-08T06:13:41.999Z,20.31
2018-05-08T06:14:41.809Z,20.32
2018-05-08T06:15:41.826Z,20.32
2018-05-08T06:16:41.895Z,20.32
2018-05-08T06:17:41.933Z,20.34
2018-05-08T06:18:41.894Z,20.33
2018-05-08T06:19:41.806Z,20.33
2018-05-08T06:20:41.901Z,20.33
2018-05-08T06:21:41.951Z,20.33
2018-05-08T06:22:41.717Z,20.32
2018-05-08T06:23:41.972Z,20.33
2018-05-08T06:24:41.896Z,20.33
2018-05-08T06:25:41.900Z,20.35
2018-05-08T06:26:41.861Z,20.38
2018-05-08T06:27:41.980Z,20.39
2018-05-08T06:28:41.914Z,20.41
2018-05-08T06:29:41.887Z,20.39
2018-05-08T06:30:41.815Z,20.38
2018-05-08T06:31:42.089Z,20.4
2018-05-08T06:32:41.769Z,20.41
2018-05-08T06:33:42.012Z,20.42
2018-05-08T06:34:42.023Z,20.41
2018-05-08T06:35:42.054Z,20.41
2018-05-08T06:36:41.835Z,20.4
2018-05-08T06:37:41.999Z,20.4
2018-05-08T06:38:41.973Z,20.41
2018-05-08T06:39:41.935Z,20.41
2018-05-08T06:40:41.929Z,20.41
2018-05-08T06:41:41.798Z,20.41
2018-05-08T06:42:41.993Z,20.41
2018-05-08T06:43:41.905Z,20.41
2018-05-08T06:44:41.992Z,20.44
2018-05-08T06:45:41.813Z,20.44
2018-05-08T06:46:42.220Z,20.42
2018-05-08T06:47:41.916Z,20.44
2018-05-08T06:48:41.866Z,20.42
2018-05-08T06:49:41.883Z,20.41
2018-05-08T06:50:41.773Z,20.43
2018-05-08T06:51:41.915Z,20.42
2018-05-08T06:52:41.948Z,20.41
2018-05-08T06:53:42.029Z,20.41
2018-05-08T06:54:42.039Z,20.41
2018-05-08T06:55:41.878Z,20.41
2018-05-08T06:56:41.796Z,20.41
2018-05-08T06:57:41.890Z,20.41
2018-05-08T06:58:41.968Z,20.39
2018-05-08T06:59:41.765Z,20.4
2018-05-08T07:00:41.928Z,20.4
2018-05-08T07:01:41.887Z,20.39
2018-05-08T07:02:41.994Z,20.41
2018-05-08T07:03:41.926Z,20.41
2018-05-08T07:04:41.983Z,20.4
2018-05-08T07:05:41.851Z,20.39
2018-05-08T07:06:41.953Z,20.4
2018-05-08T07:07:41.987Z,20.39
2018-05-08T07:08:41.824Z,20.4
2018-05-08T07:09:41.877Z,20.41
2018-05-08T07:11:13.718Z,20.4
2018-05-08T07:11:42.103Z,20.4
2018-05-08T07:12:41.985Z,20.4
2018-05-08T07:13:41.961Z,20.39
2018-05-08T07:14:41.963Z,20.39
2018-05-08T07:15:42.504Z,20.39
2018-05-08T07:16:41.909Z,20.39
2018-05-08T07:17:41.926Z,20.39
2018-05-08T07:18:41.944Z,20.4
2018-05-08T07:19:41.850Z,20.39
2018-05-08T07:20:51.865Z,20.4
2018-05-08T07:21:41.970Z,20.4
2018-05-08T07:22:41.922Z,20.39
2018-05-08T07:23:41.863Z,20.4
2018-05-08T07:24:41.825Z,20.4
2018-05-08T07:25:41.937Z,20.39
2018-05-08T07:26:42.174Z,20.4
2018-05-08T07:27:41.920Z,20.4
2018-05-08T07:28:41.889Z,20.39
2018-05-08T07:29:41.885Z,20.4
2018-05-08T07:30:42.074Z,20.4
2018-05-08T07:31:41.854Z,20.39
2018-05-08T07:32:41.811Z,20.41
2018-05-08T07:33:42.018Z,20.4
2018-05-08T07:34:41.961Z,20.39
2018-05-08T07:35:41.935Z,20.41
2018-05-08T07:36:41.756Z,20.41
2018-05-08T07:37:41.884Z,20.4
2018-05-08T07:38:41.718Z,20.4
2018-05-08T07:39:41.833Z,20.4
2018-05-08T07:40:41.983Z,20.39
2018-05-08T07:41:41.921Z,20.4
2018-05-08T07:42:41.914Z,20.39
2018-05-08T07:43:41.931Z,20.39
2018-05-08T07:44:41.922Z,20.41
2018-05-08T07:45:42.001Z,20.41
2018-05-08T07:46:41.847Z,20.4
2018-05-08T07:47:41.909Z,20.41
2018-05-08T07:48:42.004Z,20.41
2018-05-08T07:49:41.938Z,20.39
2018-05-08T07:50:42.550Z,20.41
2018-05-08T07:51:42.197Z,20.41
2018-05-08T07:52:41.832Z,20.4
2018-05-08T07:53:41.869Z,20.4
2018-05-08T07:54:41.978Z,20.4
2018-05-08T07:55:42.011Z,20.39
2018-05-08T07:56:42.090Z,20.39
2018-05-08T07:57:42.522Z,20.4
2018-05-08T07:58:41.888Z,20.39
2018-05-08T07:59:41.774Z,20.4
2018-05-08T08:00:42.078Z,20.41
2018-05-08T08:01:42.020Z,20.4
2018-05-08T08:02:41.978Z,20.42
2018-05-08T08:03:41.882Z,20.4
2018-05-08T08:04:41.866Z,20.4
2018-05-08T08:05:41.841Z,20.41
2018-05-08T08:06:41.864Z,20.41
2018-05-08T08:07:41.961Z,20.4
2018-05-08T08:08:41.826Z,20.41
2018-05-08T08:09:41.981Z,20.41
2018-05-08T08:10:42.017Z,20.4
2018-05-08T08:11:41.870Z,20.41
2018-05-08T08:12:41.928Z,20.41
2018-05-08T08:13:41.795Z,20.4
2018-05-08T08:14:41.773Z,20.41
2018-05-08T08:15:42.017Z,20.41
2018-05-08T08:16:42.061Z,20.4
2018-05-08T08:17:41.914Z,20.43
2018-05-08T08:18:41.839Z,20.41
2018-05-08T08:19:41.795Z,20.4
2018-05-08T08:20:41.858Z,20.41
2018-05-08T08:21:41.816Z,20.41
2018-05-08T08:22:41.966Z,20.4
2018-05-08T08:23:41.858Z,20.41
2018-05-08T08:24:41.965Z,20.41
2018-05-08T08:25:41.847Z,20.4
2018-05-08T08:26:42.028Z,20.41
2018-05-08T08:27:41.958Z,20.4
2018-05-08T08:28:41.957Z,20.4
2018-05-08T08:29:42.284Z,20.4
2018-05-08T08:30:41.769Z,20.4
2018-05-08T08:31:42.131Z,20.4
2018-05-08T08:32:41.884Z,20.41
2018-05-08T08:33:42.127Z,20.41
2018-05-08T08:34:41.912Z,20.39
2018-05-08T08:35:41.866Z,20.41
2018-05-08T08:36:41.867Z,20.41
2018-05-08T08:37:42.029Z,20.4
2018-05-08T08:38:41.889Z,20.4
2018-05-08T08:39:41.895Z,20.4
2018-05-08T08:40:41.756Z,20.4
2018-05-08T08:41:41.801Z,20.4
2018-05-08T08:42:41.773Z,20.4
2018-05-08T08:43:41.981Z,20.4
2018-05-08T08:44:41.988Z,20.4
2018-05-08T08:45:42.005Z,20.39
2018-05-08T08:46:41.822Z,20.4
2018-05-08T08:47:42.787Z,20.39
2018-05-08T08:48:41.944Z,20.39
2018-05-08T08:49:41.828Z,20.39
2018-05-08T08:50:42.156Z,20.41
2018-05-08T08:51:41.791Z,20.4
2018-05-08T08:52:41.768Z,20.4
2018-05-08T08:53:41.841Z,20.41
2018-05-08T08:54:42.045Z,20.41
2018-05-08T08:55:41.840Z,20.39
2018-05-08T08:56:41.853Z,20.39
2018-05-08T08:57:41.751Z,20.39
2018-05-08T08:58:41.909Z,20.39
2018-05-08T08:59:41.950Z,20.39
2018-05-08T09:00:41.807Z,20.39
2018-05-08T09:01:42.143Z,20.38
2018-05-08T09:02:41.812Z,20.4
2018-05-08T09:03:41.900Z,20.38
2018-05-08T09:04:41.815Z,20.38
2018-05-08T09:05:41.976Z,20.39
2018-05-08T09:06:41.825Z,20.39
2018-05-08T09:07:41.839Z,20.39
2018-05-08T09:08:41.854Z,20.38
2018-05-08T09:09:41.878Z,20.39
2018-05-08T09:10:42.065Z,20.38
2018-05-08T09:11:41.973Z,20.39
2018-05-08T09:12:41.996Z,20.38
2018-05-08T09:13:41.990Z,20.37
2018-05-08T09:14:41.809Z,20.38
2018-05-08T09:15:41.896Z,20.38
2018-05-08T09:16:42.016Z,20.38
2018-05-08T09:17:41.916Z,20.38
2018-05-08T09:18:41.779Z,20.39
2018-05-08T09:19:42.293Z,20.38
2018-05-08T09:20:41.844Z,20.4
2018-05-08T09:21:41.819Z,20.39
2018-05-08T09:22:41.780Z,20.38
2018-05-08T09:23:41.928Z,20.39
2018-05-08T09:24:41.843Z,20.38
2018-05-08T09:25:41.805Z,20.38
2018-05-08T09:26:41.848Z,20.38
2018-05-08T09:27:42.214Z,20.38
2018-05-08T09:28:41.798Z,20.38
2018-05-08T09:29:41.888Z,20.39
2018-05-08T09:30:41.839Z,20.39
2018-05-08T09:31:41.722Z,20.37
2018-05-08T09:32:42.144Z,20.4
2018-05-08T09:33:41.879Z,20.4
2018-05-08T09:34:41.931Z,20.38
2018-05-08T09:35:41.987Z,20.37
2018-05-08T09:36:41.755Z,20.39
2018-05-08T09:37:41.927Z,20.38
2018-05-08T09:38:42.011Z,20.38
2018-05-08T09:39:41.785Z,20.38
2018-05-08T09:40:41.996Z,20.38
2018-05-08T09:41:41.805Z,20.38
2018-05-08T09:42:42.010Z,20.38
2018-05-08T09:43:41.802Z,20.37
2018-05-08T09:44:41.870Z,20.39
2018-05-08T09:45:41.931Z,20.38
2018-05-08T09:46:41.915Z,20.37
2018-05-08T09:47:41.802Z,20.38
2018-05-08T09:48:42.096Z,20.38
2018-05-08T09:49:41.864Z,20.37
2018-05-08T09:50:41.794Z,20.37
2018-05-08T09:51:42.699Z,20.38
2018-05-08T09:52:42.574Z,20.37
2018-05-08T09:53:42.414Z,20.38
2018-05-08T09:54:42.403Z,20.37
2018-05-08T09:55:42.463Z,20.37
2018-05-08T09:56:42.521Z,20.39
2018-05-08T09:57:42.555Z,20.37
2018-05-08T09:58:42.433Z,20.37
2018-05-08T09:59:42.565Z,20.38
2018-05-08T10:00:42.642Z,20.38
2018-05-08T10:01:42.684Z,20.38
2018-05-08T10:02:42.610Z,20.39
2018-05-08T10:03:42.589Z,20.37
2018-05-08T10:04:42.448Z,20.37
2018-05-08T10:05:42.552Z,20.4
2018-05-08T10:06:43.801Z,20.39
2018-05-08T10:07:42.516Z,20.37
2018-05-08T10:08:42.579Z,20.4
2018-05-08T10:09:42.339Z,20.39
2018-05-08T10:10:42.498Z,20.38
2018-05-08T10:11:42.616Z,20.39
2018-05-08T10:12:42.505Z,20.38
2018-05-08T10:13:42.481Z,20.37
2018-05-08T10:14:42.690Z,20.38
2018-05-08T10:15:42.583Z,20.38
2018-05-08T10:16:42.401Z,20.37
2018-05-08T10:17:42.559Z,20.4
2018-05-08T10:18:42.351Z,20.38
2018-05-08T10:19:42.459Z,20.37
2018-05-08T10:20:42.918Z,20.41
2018-05-08T10:21:42.601Z,20.42
2018-05-08T10:22:42.569Z,20.44
2018-05-08T10:23:42.550Z,20.46
2018-05-08T10:24:42.658Z,20.43
2018-05-08T10:25:42.683Z,20.41
2018-05-08T10:26:42.796Z,20.41
2018-05-08T10:27:42.740Z,20.41
2018-05-08T10:28:42.758Z,20.41
2018-05-08T10:29:42.846Z,20.41
2018-05-08T10:30:42.538Z,20.42
2018-05-08T10:31:42.714Z,20.41
2018-05-08T10:32:42.529Z,20.41
2018-05-08T10:33:42.575Z,20.41
2018-05-08T10:34:42.585Z,20.4
2018-05-08T10:35:42.375Z,20.42
2018-05-08T10:36:42.671Z,20.41
2018-05-08T10:37:42.631Z,20.4
2018-05-08T10:38:42.330Z,20.42
2018-05-08T10:39:42.653Z,20.42
2018-05-08T10:40:42.675Z,20.39
2018-05-08T10:41:42.374Z,20.39
2018-05-08T10:42:42.902Z,20.39
2018-05-08T10:43:42.493Z,20.38
2018-05-08T10:44:42.603Z,20.42
2018-05-08T10:45:42.637Z,20.4
2018-05-08T10:46:42.561Z,20.38
2018-05-08T10:47:42.403Z,20.42
2018-05-08T10:48:42.506Z,20.41
2018-05-08T10:49:42.696Z,20.4
2018-05-08T10:50:41.787Z,20.41
2018-05-08T10:51:42.694Z,20.4
2018-05-08T10:52:42.744Z,20.39
2018-05-08T10:53:41.700Z,20.41
2018-05-08T10:54:42.658Z,20.4
2018-05-08T10:55:43.235Z,20.39
2018-05-08T10:56:42.789Z,20.41
2018-05-08T10:57:41.755Z,20.4
2018-05-08T10:58:42.025Z,20.38
2018-05-08T10:59:42.709Z,20.41
2018-05-08T11:00:41.728Z,20.4
2018-05-08T11:01:42.694Z,20.39
2018-05-08T11:02:41.702Z,20.41
2018-05-08T11:03:42.692Z,20.4
2018-05-08T11:04:42.535Z,20.39
2018-05-08T11:05:41.759Z,20.41
2018-05-08T11:06:41.746Z,20.39
2018-05-08T11:07:41.809Z,20.37
2018-05-08T11:08:42.674Z,20.4
2018-05-08T11:09:41.760Z,20.39
2018-05-08T11:10:42.340Z,20.38
2018-05-08T11:11:41.730Z,20.41
2018-05-08T11:12:42.651Z,20.39
2018-05-08T11:13:42.253Z,20.36
2018-05-08T11:14:42.844Z,20.4
2018-05-08T11:15:42.396Z,20.39
2018-05-08T11:16:41.763Z,20.39
2018-05-08T11:17:42.765Z,20.41
2018-05-08T11:18:42.823Z,20.4
2018-05-08T11:19:43.364Z,20.37
2018-05-08T11:20:41.813Z,20.41
2018-05-08T11:21:42.444Z,20.38
2018-05-08T11:22:41.790Z,20.38
2018-05-08T11:23:41.791Z,20.41
2018-05-08T11:24:42.833Z,20.39
2018-05-08T11:25:41.816Z,20.38
2018-05-08T11:26:43.465Z,20.4
2018-05-08T11:27:41.848Z,20.38
2018-05-08T11:28:42.315Z,20.38
2018-05-08T11:29:42.288Z,20.4
2018-05-08T11:30:42.030Z,20.39
2018-05-08T11:31:42.317Z,20.38
2018-05-08T11:32:41.946Z,20.4
2018-05-08T11:33:42.283Z,20.39
2018-05-08T11:34:42.135Z,20.39
2018-05-08T11:35:42.503Z,20.41
2018-05-08T11:36:41.749Z,20.38
2018-05-08T11:37:41.727Z,20.38
2018-05-08T11:38:42.804Z,20.38
2018-05-08T11:39:41.793Z,20.38
2018-05-08T11:40:41.844Z,20.38
2018-05-08T11:41:41.803Z,20.41
2018-05-08T11:42:42.629Z,20.4
2018-05-08T11:43:42.477Z,20.38
2018-05-08T11:44:42.042Z,20.41
2018-05-08T11:45:41.823Z,20.39
2018-05-08T11:46:41.707Z,20.38
2018-05-08T11:47:41.853Z,20.4
2018-05-08T11:48:42.410Z,20.38
2018-05-08T11:49:41.785Z,20.39
2018-05-08T11:50:42.351Z,20.4
2018-05-08T11:51:41.966Z,20.39
2018-05-08T11:52:42.072Z,20.39
2018-05-08T11:53:41.943Z,20.4
2018-05-08T11:54:42.064Z,20.4
2018-05-08T11:55:42.062Z,20.38
2018-05-08T11:56:41.951Z,20.39
2018-05-08T11:57:41.994Z,20.38
2018-05-08T11:58:41.941Z,20.38
2018-05-08T11:59:42.077Z,20.4
2018-05-08T12:00:42.047Z,20.39
2018-05-08T12:01:42.082Z,20.38
2018-05-08T12:02:42.871Z,20.4
2018-05-08T12:03:42.083Z,20.39
2018-05-08T12:04:44.559Z,20.39
2018-05-08T12:05:41.943Z,20.41
2018-05-08T12:06:42.322Z,20.39
2018-05-08T12:07:44.336Z,20.39
2018-05-08T12:08:41.954Z,20.4
2018-05-08T12:09:42.076Z,20.39
2018-05-08T12:10:41.959Z,20.38
2018-05-08T12:11:41.956Z,20.41
2018-05-08T12:12:44.389Z,20.39
2018-05-08T12:13:41.957Z,20.38
2018-05-08T12:14:42.213Z,20.41
2018-05-08T12:15:42.063Z,20.4
2018-05-08T12:16:45.439Z,20.39
2018-05-08T12:17:42.063Z,20.41
2018-05-08T12:18:42.342Z,20.41
2018-05-08T12:19:41.959Z,20.4
2018-05-08T12:20:41.988Z,20.42
2018-05-08T12:21:42.490Z,20.41
2018-05-08T12:22:44.699Z,20.39
2018-05-08T12:23:42.003Z,20.41
2018-05-08T12:24:42.049Z,20.4
2018-05-08T12:25:42.106Z,20.37
2018-05-08T12:26:42.036Z,20.38
2018-05-08T12:27:42.058Z,20.4
2018-05-08T12:28:42.294Z,20.39
2018-05-08T12:29:41.978Z,20.41
2018-05-08T12:30:44.241Z,20.41
2018-05-08T12:31:42.080Z,20.41
2018-05-08T12:32:42.524Z,20.4
2018-05-08T12:33:42.047Z,20.4
2018-05-08T12:34:42.062Z,20.4
2018-05-08T12:35:42.354Z,20.41
2018-05-08T12:36:42.095Z,20.4
2018-05-08T12:37:41.947Z,20.39
2018-05-08T12:38:44.141Z,20.41
2018-05-08T12:39:41.973Z,20.41
2018-05-08T12:40:41.965Z,20.4
2018-05-08T12:41:42.038Z,20.4
2018-05-08T12:42:42.128Z,20.4
2018-05-08T12:43:42.140Z,20.4
2018-05-08T12:44:41.976Z,20.41
2018-05-08T12:45:41.987Z,20.41
2018-05-08T12:46:42.727Z,20.41
2018-05-08T12:47:42.093Z,20.41
2018-05-08T12:48:42.369Z,20.41
2018-05-08T12:49:42.319Z,20.41
2018-05-08T12:50:41.684Z,20.4
2018-05-08T12:51:41.853Z,20.39
2018-05-08T12:52:42.545Z,20.39
2018-05-08T12:53:41.847Z,20.4
2018-05-08T12:54:41.840Z,20.4
2018-05-08T12:55:41.860Z,20.4
2018-05-08T12:56:41.854Z,20.4
2018-05-08T12:57:41.831Z,20.4